Time;durP1;ratioP1;P1;durP2;ratioP2;P2;SDS_P1;SDS_P2;PMS_P1;PMS_P2;Temp;Humidity;BMP_temperature;BMP_pressure;BME280_temperature;BME280_humidity;BME280_pressure;Samples;Min_cycle;Max_cycle;Signal;HPM_P1;HPM_P2
2022/01/20 00:03:16;;;;;;;23.47;2.67;;;3.80;99.90;;;;;;5067453;28;20175;-85
2022/01/20 00:08:35;;;;;;;20.30;2.67;;;3.80;99.90;;;;;;5051299;28;20189;-86
2022/01/20 00:27:29;;;;;;;15.57;2.20;;;3.90;99.90;;;;;;5067428;28;20194;-85
2022/01/20 00:32:57;;;;;;;15.07;2.43;;;3.90;99.90;;;;;;5067955;28;20231;-85
2022/01/20 00:38:11;;;;;;;16.30;2.73;;;4.00;99.90;;;;;;5048938;28;20208;-84
2022/01/20 00:40:36;;;;;;;23.80;3.00;;;4.00;99.90;;;;;;5052310;28;20202;-87
2022/01/20 00:43:02;;;;;;;16.03;2.27;;;4.00;99.90;;;;;;5056796;22;20222;-76
2022/01/20 00:45:28;;;;;;;25.77;3.03;;;4.00;99.90;;;;;;5030225;28;20844;-76
2022/01/20 00:47:53;;;;;;;21.23;2.87;;;3.90;99.90;;;;;;5031941;28;20191;-76
2022/01/20 00:50:19;;;;;;;12.10;2.40;;;3.90;99.90;;;;;;5034411;28;20696;-75
2022/01/20 00:52:45;;;;;;;12.90;2.30;;;3.90;99.90;;;;;;5034233;28;20231;-75
2022/01/20 00:55:10;;;;;;;19.77;2.60;;;3.90;99.90;;;;;;5034129;28;20198;-77
2022/01/20 00:57:36;;;;;;;14.03;2.03;;;3.90;99.90;;;;;;5033831;28;20607;-76
2022/01/20 01:00:06;;;;;;;11.43;2.13;;;3.90;99.90;;;;;;5034306;28;20715;-76
2022/01/20 01:02:33;;;;;;;19.13;2.97;;;4.00;99.90;;;;;;5033708;28;20664;-76
2022/01/20 01:04:59;;;;;;;14.70;2.50;;;4.00;99.90;;;;;;5033826;28;20288;-76
2022/01/20 01:10:09;;;;;;;17.47;3.03;;;4.00;99.90;;;;;;5035464;28;20262;-76
2022/01/20 01:12:49;;;;;;;12.70;2.43;;;4.00;99.90;;;;;;5034033;28;20515;-76
2022/01/20 01:15:23;;;;;;;14.33;2.70;;;4.10;99.90;;;;;;5033848;28;20199;-76
2022/01/20 01:20:46;;;;;;;16.50;2.23;;;4.10;99.90;;;;;;5035384;28;20184;-76
2022/01/20 01:23:12;;;;;;;15.40;2.30;;;4.10;99.90;;;;;;5033580;28;20173;-76
2022/01/20 01:25:38;;;;;;;18.73;2.27;;;4.10;99.90;;;;;;5033519;28;20681;-76
2022/01/20 01:28:04;;;;;;;15.87;2.33;;;4.00;99.90;;;;;;5033428;28;20232;-76
2022/01/20 01:31:14;;;;;;;12.73;2.03;;;4.00;99.90;;;;;;5033422;28;20182;-76
2022/01/20 01:33:17;;;;;;;21.13;2.43;;;3.90;99.90;;;;;;5034420;28;20574;-76
2022/01/20 01:35:43;;;;;;;11.57;2.40;;;3.80;99.90;;;;;;5033435;28;20223;-76
2022/01/20 01:40:37;;;;;;;13.43;2.33;;;3.90;99.90;;;;;;5034481;28;20522;-77
2022/01/20 01:43:11;;;;;;;16.30;2.37;;;3.90;99.90;;;;;;5033105;28;20563;-77
2022/01/20 01:45:40;;;;;;;12.30;2.17;;;3.80;99.90;;;;;;5033131;28;20549;-75
2022/01/20 01:48:06;;;;;;;13.00;2.20;;;3.90;99.90;;;;;;5033203;28;20182;-76
2022/01/20 01:50:33;;;;;;;10.27;2.17;;;3.90;99.90;;;;;;5033201;28;20201;-76
2022/01/20 01:53:02;;;;;;;13.53;2.00;;;4.00;99.90;;;;;;5033103;28;20292;-75
2022/01/20 01:55:28;;;;;;;15.93;2.27;;;3.90;99.90;;;;;;5032985;28;20190;-75
2022/01/20 01:57:54;;;;;;;9.43;2.20;;;3.80;99.90;;;;;;5032486;28;20181;-75
2022/01/20 02:00:20;;;;;;;10.80;2.07;;;3.80;99.90;;;;;;5033060;28;20184;-75
2022/01/20 02:02:46;;;;;;;15.00;2.20;;;3.80;99.90;;;;;;5032889;28;20261;-76
2022/01/20 02:05:14;;;;;;;9.63;1.67;;;3.80;99.90;;;;;;5032870;28;20225;-77
2022/01/20 02:20:55;;;;;;;10.90;2.40;;;3.90;99.90;;;;;;5034219;28;20168;-76
2022/01/20 02:23:21;;;;;;;9.90;1.60;;;3.90;99.90;;;;;;5032547;28;20200;-76
2022/01/20 02:25:48;;;;;;;10.33;1.90;;;3.90;99.90;;;;;;5032381;28;20364;-78
2022/01/20 02:28:14;;;;;;;10.17;1.90;;;3.90;99.90;;;;;;5032313;28;20178;-77
2022/01/20 02:30:43;;;;;;;15.90;1.87;;;3.90;99.90;;;;;;5032369;28;20206;-75
2022/01/20 02:33:18;;;;;;;9.43;1.40;;;3.90;99.90;;;;;;5032254;28;20255;-76
2022/01/20 02:35:56;;;;;;;9.77;1.50;;;4.00;99.90;;;;;;5032365;28;20693;-76
2022/01/20 02:46:20;;;;;;;13.83;1.50;;;4.10;99.90;;;;;;5034167;28;20232;-82
2022/01/20 02:48:46;;;;;;;10.57;1.80;;;4.20;99.90;;;;;;5034054;28;20646;-81
2022/01/20 02:51:11;;;;;;;11.57;2.00;;;4.10;99.90;;;;;;5034768;28;20177;-82
2022/01/20 02:53:37;;;;;;;11.13;2.00;;;4.00;99.90;;;;;;5033086;28;20170;-81
2022/01/20 02:56:03;;;;;;;10.73;1.97;;;4.00;99.90;;;;;;5034311;28;20220;-81
2022/01/20 02:58:29;;;;;;;16.77;1.90;;;4.00;99.90;;;;;;5033831;28;20549;-81
2022/01/20 03:00:55;;;;;;;10.27;1.80;;;4.10;99.90;;;;;;5033947;28;20174;-81
2022/01/20 03:03:20;;;;;;;16.67;2.20;;;4.20;99.90;;;;;;5033369;28;20190;-81
2022/01/20 03:05:46;;;;;;;8.60;1.50;;;4.20;99.90;;;;;;5033536;28;20190;-81
2022/01/20 03:08:12;;;;;;;4.90;1.53;;;4.30;99.90;;;;;;5034450;28;20802;-82
2022/01/20 03:10:38;;;;;;;9.63;1.80;;;4.30;99.90;;;;;;5032078;28;20170;-81
2022/01/20 03:13:05;;;;;;;11.77;2.27;;;4.30;99.90;;;;;;5032579;28;20620;-81
2022/01/20 03:15:33;;;;;;;7.50;1.70;;;4.30;99.90;;;;;;5032747;28;20190;-81
2022/01/20 03:17:59;;;;;;;8.63;1.70;;;4.30;99.90;;;;;;5032818;28;20260;-82
2022/01/20 03:20:25;;;;;;;5.33;1.40;;;4.30;99.90;;;;;;5034143;28;20253;-81
2022/01/20 03:22:50;;;;;;;9.70;1.50;;;4.30;99.90;;;;;;5033930;28;20665;-82
2022/01/20 03:25:16;;;;;;;8.37;1.60;;;4.20;99.90;;;;;;5032604;28;20544;-81
2022/01/20 03:27:41;;;;;;;12.13;1.40;;;4.30;99.90;;;;;;5032494;28;20175;-82
2022/01/20 03:30:08;;;;;;;8.07;1.90;;;4.20;99.90;;;;;;5033815;28;20178;-82
2022/01/20 03:32:34;;;;;;;10.13;1.80;;;4.20;99.90;;;;;;5033279;28;20188;-81
2022/01/20 03:35:00;;;;;;;10.33;1.40;;;4.30;99.90;;;;;;5033525;28;20634;-81
2022/01/20 03:37:25;;;;;;;9.03;1.50;;;4.20;99.90;;;;;;5033477;28;20182;-81
2022/01/20 03:39:51;;;;;;;8.57;1.83;;;4.30;99.90;;;;;;5032198;28;20673;-81
2022/01/20 03:42:17;;;;;;;9.47;1.30;;;4.30;99.90;;;;;;5033064;28;20252;-81
2022/01/20 03:44:42;;;;;;;5.90;1.07;;;4.40;99.90;;;;;;5033239;28;20170;-81
2022/01/20 03:47:09;;;;;;;7.70;1.27;;;4.30;99.90;;;;;;5031809;28;20210;-82
2022/01/20 03:52:00;;;;;;;3.33;1.07;;;4.30;99.90;;;;;;5033005;28;20224;-81
2022/01/20 03:54:26;;;;;;;4.43;1.37;;;4.30;99.90;;;;;;5032067;28;20174;-81
2022/01/20 03:56:52;;;;;;;6.83;1.37;;;4.20;99.90;;;;;;5033247;28;20234;-81
2022/01/20 03:59:17;;;;;;;5.37;1.03;;;4.10;99.90;;;;;;5031755;28;20174;-81
2022/01/20 04:01:43;;;;;;;9.30;1.33;;;4.10;99.90;;;;;;5032384;28;20276;-82
2022/01/20 04:04:08;;;;;;;7.73;1.47;;;4.20;99.90;;;;;;5032089;28;20523;-82
2022/01/20 04:06:34;;;;;;;9.17;1.23;;;4.20;99.90;;;;;;5031490;28;20723;-81
2022/01/20 04:08:59;;;;;;;3.90;1.30;;;4.20;99.90;;;;;;5032999;28;20582;-81
2022/01/20 04:11:27;;;;;;;5.80;1.30;;;4.20;99.90;;;;;;5033004;28;20199;-82
2022/01/20 04:13:54;;;;;;;9.23;1.57;;;4.20;99.90;;;;;;5032922;28;20641;-82
2022/01/20 04:16:51;;;;;;;7.50;1.30;;;4.20;99.90;;;;;;5033189;28;20173;-81
2022/01/20 04:19:17;;;;;;;4.27;1.23;;;4.20;99.90;;;;;;5013955;28;20186;-81
2022/01/20 04:21:42;;;;;;;9.57;1.63;;;4.20;99.90;;;;;;5012800;28;20191;-82
2022/01/20 04:24:09;;;;;;;8.33;1.67;;;4.20;99.90;;;;;;5014135;28;20166;-82
2022/01/20 04:26:35;;;;;;;7.37;1.10;;;4.20;99.90;;;;;;5014056;28;20285;-81
2022/01/20 04:29:06;;;;;;;6.73;0.90;;;4.20;99.90;;;;;;5032556;28;20247;-82
2022/01/20 04:31:33;;;;;;;8.13;0.90;;;4.20;99.90;;;;;;5033331;28;20209;-82
2022/01/20 04:34:00;;;;;;;6.27;1.10;;;4.20;99.90;;;;;;5031658;28;20210;-81
2022/01/20 04:36:28;;;;;;;5.77;0.77;;;4.10;99.90;;;;;;5033213;28;20250;-82
2022/01/20 04:38:54;;;;;;;2.50;0.80;;;4.10;99.90;;;;;;5033338;28;20174;-82
2022/01/20 04:41:21;;;;;;;2.83;0.80;;;4.10;99.90;;;;;;5033406;28;20177;-81
2022/01/20 04:43:47;;;;;;;4.23;0.90;;;4.10;99.90;;;;;;5033613;28;20182;-82
2022/01/20 04:46:16;;;;;;;5.17;0.83;;;4.00;99.90;;;;;;5032800;28;20606;-81
2022/01/20 04:59:23;;;;;;;5.43;0.60;;;3.80;99.90;;;;;;5013923;28;20228;-82
2022/01/20 05:01:48;;;;;;;3.27;1.10;;;3.80;99.90;;;;;;5011178;28;20202;-82
2022/01/20 05:04:14;;;;;;;3.60;0.70;;;3.80;99.90;;;;;;5013518;28;20257;-81
2022/01/20 05:06:42;;;;;;;5.60;1.27;;;3.80;99.90;;;;;;5011624;28;20205;-82
2022/01/20 05:09:09;;;;;;;14.57;1.40;;;3.80;99.90;;;;;;5031730;28;20236;-82
2022/01/20 05:11:41;;;;;;;4.43;1.17;;;3.80;99.90;;;;;;5031442;28;20232;-81
2022/01/20 05:14:06;;;;;;;5.63;1.10;;;3.80;99.90;;;;;;5032818;28;20760;-81
2022/01/20 05:16:32;;;;;;;4.47;1.00;;;3.80;99.90;;;;;;5031834;28;20174;-81
2022/01/20 05:18:57;;;;;;;8.33;1.00;;;3.80;99.90;;;;;;5032848;28;20183;-82
2022/01/20 05:21:23;;;;;;;7.50;1.20;;;3.80;99.90;;;;;;5032698;28;20308;-81
2022/01/20 05:23:49;;;;;;;6.97;1.10;;;3.80;99.90;;;;;;5031570;28;20305;-82
2022/01/20 05:26:14;;;;;;;3.13;0.73;;;3.70;99.90;;;;;;5032957;28;20204;-82
2022/01/20 05:28:40;;;;;;;8.17;1.60;;;3.70;99.90;;;;;;5031711;28;20174;-81
2022/01/20 05:31:05;;;;;;;4.70;0.90;;;3.70;99.90;;;;;;5031127;28;20182;-82
2022/01/20 05:33:31;;;;;;;6.83;1.30;;;3.70;99.90;;;;;;5032512;28;20201;-82
2022/01/20 05:35:56;;;;;;;8.70;1.23;;;3.70;99.90;;;;;;5036245;28;20523;-81
2022/01/20 05:38:22;;;;;;;6.40;1.23;;;3.70;99.90;;;;;;5034458;28;20764;-81
2022/01/20 05:40:48;;;;;;;6.20;1.00;;;3.60;99.90;;;;;;5036509;28;20170;-81
2022/01/20 05:43:14;;;;;;;9.20;1.27;;;3.50;99.90;;;;;;5036011;28;20704;-82
2022/01/20 05:45:40;;;;;;;8.70;1.90;;;3.50;99.90;;;;;;5034832;28;20194;-82
2022/01/20 05:48:15;;;;;;;7.80;1.40;;;3.50;99.90;;;;;;5034251;28;20174;-82
2022/01/20 05:50:41;;;;;;;15.50;1.90;;;3.40;99.90;;;;;;5035160;28;20266;-81
2022/01/20 05:53:07;;;;;;;8.63;1.53;;;3.40;99.90;;;;;;5034554;28;20216;-81
2022/01/20 05:55:35;;;;;;;6.03;1.47;;;3.40;99.90;;;;;;5034730;28;20220;-81
2022/01/20 05:58:01;;;;;;;6.57;1.33;;;3.40;99.90;;;;;;5034606;28;20540;-82
2022/01/20 06:00:27;;;;;;;9.40;1.30;;;3.40;99.90;;;;;;5035327;28;20174;-81
2022/01/20 06:05:38;;;;;;;13.53;2.03;;;3.30;99.90;;;;;;5035253;28;20711;-81
2022/01/20 06:08:04;;;;;;;10.70;1.70;;;3.30;99.90;;;;;;5033631;28;20174;-81
2022/01/20 06:10:33;;;;;;;19.33;2.27;;;3.20;99.90;;;;;;5034444;28;20174;-81
2022/01/20 06:12:59;;;;;;;17.60;1.93;;;3.20;99.90;;;;;;5033837;28;20190;-81
2022/01/20 06:15:25;;;;;;;7.47;1.87;;;3.00;99.90;;;;;;5034558;28;20529;-81
2022/01/20 06:17:51;;;;;;;14.90;3.07;;;2.90;99.90;;;;;;5033997;28;20261;-81
2022/01/20 06:20:16;;;;;;;17.67;2.00;;;2.90;99.90;;;;;;5034957;28;20185;-81
2022/01/20 06:22:42;;;;;;;13.47;1.93;;;2.80;99.90;;;;;;5034555;28;20236;-82
2022/01/20 06:25:08;;;;;;;11.60;1.80;;;2.80;99.90;;;;;;5034394;28;20212;-81
2022/01/20 06:27:35;;;;;;;11.87;2.03;;;2.80;99.90;;;;;;5032937;28;20271;-81
2022/01/20 06:30:01;;;;;;;11.97;2.10;;;2.70;99.90;;;;;;5034271;28;20546;-81
2022/01/20 06:32:27;;;;;;;7.83;1.40;;;2.70;99.90;;;;;;5032473;28;20221;-81
2022/01/20 06:34:52;;;;;;;11.47;1.60;;;2.70;99.90;;;;;;5033430;28;20175;-81
2022/01/20 06:37:18;;;;;;;8.70;1.77;;;2.80;99.90;;;;;;5035163;28;20190;-81
2022/01/20 06:39:43;;;;;;;9.77;1.53;;;2.80;99.90;;;;;;5035375;28;20658;-81
2022/01/20 06:42:09;;;;;;;12.93;1.80;;;2.90;99.90;;;;;;5045682;22;20221;-82
2022/01/20 06:44:35;;;;;;;12.87;1.43;;;2.90;99.90;;;;;;5030326;28;20622;-83
2022/01/20 06:47:01;;;;;;;12.83;2.03;;;3.00;99.90;;;;;;5023758;28;20197;-81
2022/01/20 06:49:26;;;;;;;16.47;2.00;;;3.00;99.90;;;;;;5019091;28;20192;-82
2022/01/20 06:51:52;;;;;;;7.67;1.67;;;3.00;99.90;;;;;;5019402;28;20186;-80
2022/01/20 06:54:18;;;;;;;14.57;1.87;;;3.00;99.90;;;;;;5020896;28;20177;-80
2022/01/20 06:56:43;;;;;;;9.17;1.47;;;2.90;99.90;;;;;;5021517;28;20196;-81
2022/01/20 06:59:14;;;;;;;13.07;2.77;;;3.00;99.90;;;;;;5022849;28;20182;-80
2022/01/20 07:01:42;;;;;;;9.80;1.93;;;3.00;99.90;;;;;;5019416;28;20178;-81
2022/01/20 07:04:13;;;;;;;14.10;2.33;;;2.90;99.90;;;;;;5018041;28;20209;-81
2022/01/20 07:06:40;;;;;;;12.17;2.23;;;2.80;99.90;;;;;;5018106;28;20214;-81
2022/01/20 07:09:10;;;;;;;9.87;2.10;;;2.80;99.90;;;;;;5017966;28;20223;-82
2022/01/20 07:11:38;;;;;;;9.83;1.67;;;2.80;99.90;;;;;;5018602;28;20618;-82
2022/01/20 07:14:04;;;;;;;10.53;2.03;;;2.90;99.90;;;;;;5017049;28;20189;-82
2022/01/20 07:16:30;;;;;;;15.63;2.33;;;3.00;99.90;;;;;;5017967;28;20231;-83
2022/01/20 07:18:56;;;;;;;14.50;1.77;;;3.00;99.90;;;;;;5018771;28;20178;-83
2022/01/20 07:21:22;;;;;;;14.40;2.20;;;3.10;99.90;;;;;;5018065;28;20200;-81
2022/01/20 07:23:49;;;;;;;12.20;1.70;;;3.00;99.90;;;;;;5017733;28;20185;-81
2022/01/20 07:26:15;;;;;;;22.27;1.70;;;3.00;99.90;;;;;;5017758;28;20209;-82
2022/01/20 07:28:40;;;;;;;20.33;3.10;;;3.00;99.90;;;;;;5017786;28;20268;-81
2022/01/20 07:31:07;;;;;;;11.03;1.73;;;2.90;99.90;;;;;;5016531;28;20208;-83
2022/01/20 07:33:33;;;;;;;9.13;1.90;;;3.00;99.90;;;;;;5015881;28;20688;-82
2022/01/20 07:35:58;;;;;;;14.00;2.10;;;2.90;99.90;;;;;;5015944;28;20194;-81
2022/01/20 07:38:25;;;;;;;18.07;2.37;;;3.00;99.90;;;;;;5016479;28;20193;-84
2022/01/20 07:40:51;;;;;;;13.07;2.03;;;3.00;99.90;;;;;;5017007;28;20178;-81
2022/01/20 07:43:17;;;;;;;14.70;1.80;;;2.90;99.90;;;;;;5020276;28;20212;-82
2022/01/20 07:45:42;;;;;;;15.93;2.53;;;2.80;99.90;;;;;;5025044;28;20205;-83
2022/01/20 07:48:08;;;;;;;6.27;1.40;;;2.80;99.90;;;;;;5024775;28;20174;-83
2022/01/20 07:50:34;;;;;;;12.60;2.97;;;2.90;99.90;;;;;;5025242;28;20196;-82
2022/01/20 07:52:59;;;;;;;12.60;1.70;;;2.90;99.90;;;;;;5025623;28;20771;-82
2022/01/20 07:55:25;;;;;;;18.27;2.23;;;2.80;99.90;;;;;;5023627;28;20248;-83
2022/01/20 07:57:51;;;;;;;16.53;2.10;;;2.80;99.90;;;;;;5024892;28;20265;-82
2022/01/20 08:00:17;;;;;;;13.03;1.50;;;2.70;99.90;;;;;;5024234;28;20170;-82
2022/01/20 08:02:43;;;;;;;9.63;1.77;;;2.70;99.90;;;;;;5043231;28;20165;-82
2022/01/20 08:05:09;;;;;;;11.73;1.83;;;2.80;99.90;;;;;;5024733;28;20197;-82
2022/01/20 08:07:35;;;;;;;9.13;1.80;;;2.90;99.90;;;;;;5021915;28;20174;-83
2022/01/20 08:10:00;;;;;;;12.87;2.17;;;2.90;99.90;;;;;;5041631;28;20189;-83
2022/01/20 08:12:27;;;;;;;10.97;2.37;;;3.00;99.90;;;;;;5023881;28;20523;-82
2022/01/20 08:14:54;;;;;;;18.53;1.83;;;3.10;99.90;;;;;;5024138;28;20193;-83
2022/01/20 08:17:20;;;;;;;12.27;2.20;;;3.10;99.90;;;;;;5024908;28;20178;-83
2022/01/20 08:19:46;;;;;;;8.87;2.30;;;3.10;99.90;;;;;;5025761;28;20320;-82
2022/01/20 08:22:12;;;;;;;12.83;2.47;;;3.20;99.90;;;;;;5024029;28;20221;-82
2022/01/20 08:24:38;;;;;;;14.60;2.40;;;3.20;99.90;;;;;;5024717;28;20625;-82
2022/01/20 08:27:03;;;;;;;16.73;2.23;;;3.20;99.90;;;;;;5025250;28;20675;-83
2022/01/20 08:29:29;;;;;;;9.03;2.03;;;3.20;99.90;;;;;;5027815;28;20182;-83
2022/01/20 08:31:55;;;;;;;12.67;2.13;;;3.20;99.90;;;;;;5031538;28;20185;-82
2022/01/20 08:34:20;;;;;;;11.57;1.97;;;3.20;99.90;;;;;;5023915;28;20178;-82
2022/01/20 08:36:46;;;;;;;15.73;2.30;;;3.20;99.90;;;;;;5024799;28;20210;-82
2022/01/20 08:41:53;;;;;;;18.73;2.53;;;3.20;99.90;;;;;;5041523;28;20185;-82
2022/01/20 08:44:19;;;;;;;19.17;2.03;;;3.20;99.90;;;;;;5030933;22;20228;-77
2022/01/20 08:46:46;;;;;;;12.23;2.57;;;3.20;99.90;;;;;;5014006;28;20209;-77
2022/01/20 08:49:12;;;;;;;9.10;2.30;;;3.10;99.90;;;;;;5014205;28;20280;-77
2022/01/20 08:51:40;;;;;;;15.30;2.13;;;3.00;99.90;;;;;;5014353;28;20601;-77
2022/01/20 08:54:05;;;;;;;9.90;2.20;;;3.00;99.90;;;;;;5032020;28;20200;-77
2022/01/20 08:56:34;;;;;;;8.57;1.20;;;3.00;99.90;;;;;;5013966;28;20194;-77
2022/01/20 08:59:05;;;;;;;11.87;1.70;;;3.00;99.90;;;;;;5014171;28;20171;-77
2022/01/20 09:01:32;;;;;;;10.13;1.87;;;3.00;99.90;;;;;;5013939;28;20175;-76
2022/01/20 09:03:57;;;;;;;10.90;1.90;;;2.80;99.90;;;;;;5013494;28;20185;-76
2022/01/20 09:06:23;;;;;;;7.77;1.67;;;2.80;99.90;;;;;;5013772;28;20288;-77
2022/01/20 09:08:49;;;;;;;13.90;2.60;;;2.90;99.90;;;;;;5015864;28;20173;-77
2022/01/20 09:11:22;;;;;;;10.03;1.70;;;2.90;99.90;;;;;;5017580;28;20177;-77
2022/01/20 09:16:34;;;;;;;13.57;1.67;;;3.40;99.90;;;;;;5035880;28;20741;-76
2022/01/20 09:19:00;;;;;;;11.97;1.97;;;3.90;99.90;;;;;;5017640;28;20178;-77
2022/01/20 09:21:28;;;;;;;14.40;1.80;;;4.20;99.90;;;;;;5017349;28;20228;-77
2022/01/20 09:23:54;;;;;;;15.03;1.90;;;3.90;99.90;;;;;;5017511;28;20177;-77
2022/01/20 09:26:20;;;;;;;12.77;1.80;;;3.80;99.90;;;;;;5018590;28;20213;-78
2022/01/20 09:28:46;;;;;;;9.00;1.70;;;3.80;99.90;;;;;;5017991;28;20240;-78
2022/01/20 09:31:12;;;;;;;10.33;1.50;;;3.80;99.90;;;;;;5018000;28;20222;-77
2022/01/20 09:33:39;;;;;;;9.60;2.50;;;3.70;99.90;;;;;;5018368;28;20171;-76
2022/01/20 09:36:09;;;;;;;9.43;1.97;;;3.70;99.90;;;;;;5017729;28;20316;-77
2022/01/20 09:38:34;;;;;;;9.27;1.70;;;3.60;99.90;;;;;;5018162;28;20186;-78
2022/01/20 09:41:02;;;;;;;14.80;2.17;;;3.50;99.90;;;;;;5018102;28;20184;-77
2022/01/20 09:43:27;;;;;;;9.73;2.23;;;3.50;99.90;;;;;;5017381;28;20187;-77
2022/01/20 09:45:55;;;;;;;7.37;1.73;;;3.50;99.90;;;;;;5017448;28;20214;-76
2022/01/20 09:48:22;;;;;;;12.40;1.70;;;3.60;99.90;;;;;;5017083;28;20205;-77
2022/01/20 09:50:49;;;;;;;12.70;2.00;;;3.60;99.90;;;;;;5017756;28;20185;-78
2022/01/20 09:53:15;;;;;;;7.90;1.43;;;3.60;99.90;;;;;;5017315;28;20265;-77
2022/01/20 09:55:41;;;;;;;7.23;1.57;;;3.60;99.90;;;;;;5017135;28;20204;-77
2022/01/20 09:58:11;;;;;;;9.77;1.70;;;4.10;99.90;;;;;;5017930;28;20178;-77
2022/01/20 10:00:43;;;;;;;12.37;1.87;;;4.30;99.90;;;;;;5016937;28;20185;-77
2022/01/20 10:03:14;;;;;;;17.87;2.47;;;4.30;99.90;;;;;;5017209;28;20688;-78
2022/01/20 10:05:52;;;;;;;11.03;1.83;;;4.30;99.90;;;;;;5017596;28;20209;-77
2022/01/20 10:08:21;;;;;;;10.97;2.47;;;4.60;99.90;;;;;;5016993;28;20197;-77
2022/01/20 10:11:09;;;;;;;13.13;2.10;;;4.40;99.90;;;;;;5016647;28;20230;-77
2022/01/20 10:13:38;;;;;;;8.47;1.57;;;4.20;99.90;;;;;;5017483;28;20206;-77
2022/01/20 10:16:06;;;;;;;7.47;1.97;;;4.20;99.90;;;;;;5016617;28;20198;-77
2022/01/20 10:18:43;;;;;;;14.43;1.60;;;4.20;99.90;;;;;;5017130;28;20183;-78
2022/01/20 10:21:09;;;;;;;8.10;1.70;;;4.50;99.90;;;;;;5016459;28;20221;-78
2022/01/20 10:23:45;;;;;;;6.33;1.30;;;5.20;99.90;;;;;;5017903;28;20190;-78
2022/01/20 10:26:22;;;;;;;12.50;2.60;;;5.30;99.90;;;;;;5015867;28;20201;-76
2022/01/20 10:29:01;;;;;;;13.27;1.93;;;5.60;99.90;;;;;;5016085;28;20191;-77
2022/01/20 10:31:41;;;;;;;12.47;1.63;;;5.80;99.90;;;;;;5015936;28;20180;-76
2022/01/20 10:34:30;;;;;;;10.87;1.83;;;6.00;99.90;;;;;;5015745;28;20177;-78
2022/01/20 10:36:59;;;;;;;14.00;2.00;;;5.00;99.90;;;;;;5015506;28;20186;-77
2022/01/20 10:39:35;;;;;;;7.17;1.87;;;5.30;99.90;;;;;;5016456;28;20181;-77
2022/01/20 10:42:14;;;;;;;13.57;2.10;;;5.60;99.90;;;;;;5017455;28;20179;-77
2022/01/20 10:44:50;;;;;;;9.33;1.73;;;6.10;99.90;;;;;;5016249;28;20200;-77
2022/01/20 10:47:23;;;;;;;12.70;1.93;;;6.50;99.90;;;;;;5016484;28;20213;-77
2022/01/20 10:49:52;;;;;;;9.10;1.80;;;6.30;99.90;;;;;;5016187;28;20525;-77
2022/01/20 10:52:21;;;;;;;12.00;1.80;;;6.10;99.90;;;;;;5015687;28;20180;-76
2022/01/20 10:54:49;;;;;;;13.93;2.13;;;5.80;99.90;;;;;;5014897;28;20202;-76
2022/01/20 10:57:16;;;;;;;15.03;2.20;;;5.70;99.90;;;;;;5014810;28;20728;-77
2022/01/20 10:59:48;;;;;;;7.30;1.70;;;5.50;99.90;;;;;;5015428;28;20252;-76
2022/01/20 11:02:16;;;;;;;17.33;1.90;;;5.20;99.90;;;;;;5015063;28;20320;-76
2022/01/20 11:04:41;;;;;;;17.97;1.93;;;5.30;99.90;;;;;;5015129;28;20545;-76
2022/01/20 11:07:08;;;;;;;14.77;2.17;;;5.10;99.90;;;;;;5015197;28;20204;-76
2022/01/20 11:09:39;;;;;;;15.60;2.50;;;5.10;99.90;;;;;;5015146;28;20176;-76
2022/01/20 11:12:05;;;;;;;8.43;1.67;;;5.00;99.90;;;;;;5014840;28;20194;-76
2022/01/20 11:14:32;;;;;;;12.87;1.93;;;5.00;99.90;;;;;;5014946;28;20641;-76
2022/01/20 11:16:58;;;;;;;12.67;1.90;;;5.40;99.90;;;;;;5014938;28;20180;-76
2022/01/20 11:19:26;;;;;;;14.70;2.00;;;5.60;99.90;;;;;;5014905;28;20209;-76
2022/01/20 11:22:05;;;;;;;18.63;2.43;;;5.40;99.90;;;;;;5014850;28;20178;-76
2022/01/20 11:24:30;;;;;;;13.63;2.93;;;4.90;99.90;;;;;;4998796;28;20706;-78
2022/01/20 11:26:59;;;;;;;9.80;1.83;;;4.80;99.90;;;;;;5014728;28;20210;-76
2022/01/20 11:29:41;;;;;;;14.60;2.10;;;4.90;99.90;;;;;;5014778;28;20178;-76
2022/01/20 11:32:20;;;;;;;14.10;1.80;;;4.80;99.90;;;;;;5013984;28;20174;-76
2022/01/20 11:34:58;;;;;;;9.33;1.40;;;4.90;99.90;;;;;;5014742;28;20542;-76
2022/01/20 11:37:25;;;;;;;10.70;1.70;;;4.80;99.90;;;;;;5014697;28;20212;-77
2022/01/20 11:40:06;;;;;;;14.80;1.87;;;4.60;99.90;;;;;;5015414;28;20489;-77
2022/01/20 11:42:31;;;;;;;11.73;2.10;;;4.40;99.90;;;;;;5016298;28;20216;-77
2022/01/20 11:44:58;;;;;;;9.90;1.87;;;4.30;99.90;;;;;;5014804;28;20698;-77
2022/01/20 11:47:32;;;;;;;13.43;2.03;;;4.30;99.90;;;;;;5014767;28;20298;-77
2022/01/20 11:49:59;;;;;;;19.27;2.27;;;4.80;99.90;;;;;;5014797;28;20185;-77
2022/01/20 11:52:26;;;;;;;5.93;1.50;;;5.20;99.90;;;;;;5014621;28;20719;-77
2022/01/20 11:54:52;;;;;;;8.70;1.27;;;5.10;99.90;;;;;;5014460;28;20233;-76
2022/01/20 11:57:30;;;;;;;9.67;1.40;;;5.00;99.90;;;;;;5014984;28;20205;-77
2022/01/20 12:00:01;;;;;;;6.53;1.33;;;5.00;99.90;;;;;;5015280;28;20188;-78
2022/01/20 12:02:33;;;;;;;10.03;1.57;;;5.20;99.90;;;;;;5017028;28;20717;-78
2022/01/20 12:05:00;;;;;;;5.87;2.00;;;5.60;99.90;;;;;;5017514;28;20578;-78
2022/01/20 12:07:28;;;;;;;9.77;1.87;;;5.90;99.90;;;;;;5016068;28;20568;-76
2022/01/20 12:10:05;;;;;;;8.70;1.70;;;5.90;99.90;;;;;;5016411;28;20545;-78
2022/01/20 12:12:31;;;;;;;10.43;2.00;;;5.50;99.90;;;;;;5016535;28;20185;-76
2022/01/20 12:15:09;;;;;;;11.43;1.83;;;5.40;99.90;;;;;;5016503;28;20190;-78
2022/01/20 12:17:36;;;;;;;8.47;1.40;;;5.30;99.90;;;;;;5017815;28;20240;-76
2022/01/20 12:20:03;;;;;;;11.37;1.60;;;5.30;99.90;;;;;;5015414;28;20186;-76
2022/01/20 12:22:29;;;;;;;9.97;1.80;;;5.20;99.90;;;;;;5016224;28;20182;-77
2022/01/20 12:24:57;;;;;;;5.63;1.80;;;5.20;99.90;;;;;;5015483;28;20310;-77
2022/01/20 12:27:24;;;;;;;9.50;1.70;;;5.30;99.90;;;;;;5014855;28;20236;-77
2022/01/20 12:29:50;;;;;;;11.90;1.93;;;5.30;99.90;;;;;;5031276;28;20524;-77
2022/01/20 12:32:18;;;;;;;13.30;2.77;;;5.40;99.90;;;;;;5014135;28;20191;-77
2022/01/20 12:34:56;;;;;;;18.17;3.00;;;5.00;99.90;;;;;;5014340;28;20169;-77
2022/01/20 12:37:30;;;;;;;11.17;2.27;;;4.90;99.90;;;;;;5013673;28;20178;-77
2022/01/20 12:39:56;;;;;;;11.90;2.00;;;4.80;99.90;;;;;;5014068;28;20194;-76
2022/01/20 12:42:21;;;;;;;12.87;1.93;;;5.20;99.90;;;;;;5014683;28;20173;-77
2022/01/20 12:44:49;;;;;;;11.63;1.70;;;5.10;99.90;;;;;;5016769;28;20412;-77
2022/01/20 12:47:17;;;;;;;11.60;1.73;;;5.10;99.90;;;;;;5017199;28;20604;-77
2022/01/20 12:49:52;;;;;;;9.47;1.63;;;5.00;99.90;;;;;;5017205;28;20277;-76
2022/01/20 12:52:18;;;;;;;17.17;2.43;;;4.90;99.90;;;;;;5017072;28;20217;-76
2022/01/20 12:54:44;;;;;;;10.03;1.80;;;5.50;99.90;;;;;;5017654;28;20600;-76
2022/01/20 12:57:13;;;;;;;10.47;1.80;;;5.50;99.90;;;;;;5017304;28;20707;-76
2022/01/20 12:59:44;;;;;;;13.33;1.90;;;5.70;99.90;;;;;;5017016;28;20180;-76
2022/01/20 13:02:24;;;;;;;7.87;1.80;;;5.60;99.90;;;;;;5016318;28;20208;-76
2022/01/20 13:05:00;;;;;;;12.43;1.93;;;5.50;99.90;;;;;;5017030;28;20280;-77
2022/01/20 13:07:26;;;;;;;11.57;2.20;;;5.60;99.90;;;;;;5016933;28;20253;-76
2022/01/20 13:10:04;;;;;;;5.50;1.70;;;5.80;99.90;;;;;;5016936;28;20196;-76
2022/01/20 13:12:36;;;;;;;7.33;1.67;;;6.20;99.90;;;;;;5016635;28;20180;-76
2022/01/20 13:15:04;;;;;;;7.60;2.20;;;6.40;99.90;;;;;;5016962;28;20198;-77
2022/01/20 13:17:32;;;;;;;12.63;2.33;;;6.30;99.90;;;;;;5017107;28;20185;-77
2022/01/20 13:19:59;;;;;;;9.00;1.83;;;6.10;99.90;;;;;;5016732;28;20541;-76
2022/01/20 13:22:31;;;;;;;7.83;1.40;;;5.70;99.90;;;;;;5016481;28;20522;-76
2022/01/20 13:25:12;;;;;;;12.73;1.63;;;5.40;99.90;;;;;;5015990;28;20199;-76
2022/01/20 13:28:06;;;;;;;5.87;1.27;;;5.40;99.90;;;;;;5016225;28;20210;-76
2022/01/20 13:30:41;;;;;;;10.30;2.13;;;5.30;99.90;;;;;;5016420;28;20174;-76
2022/01/20 13:33:16;;;;;;;5.73;1.77;;;5.40;99.90;;;;;;5016564;28;20185;-76
2022/01/20 13:35:48;;;;;;;5.83;1.47;;;5.50;99.90;;;;;;5017009;28;20211;-77
2022/01/20 13:38:14;;;;;;;10.33;1.70;;;5.40;99.90;;;;;;5017116;28;20306;-76
2022/01/20 13:40:47;;;;;;;6.17;1.67;;;5.30;99.90;;;;;;5016993;28;20188;-77
2022/01/20 13:46:01;;;;;;;4.90;1.53;;;5.10;99.90;;;;;;5034916;28;20239;-77
2022/01/20 13:48:29;;;;;;;10.60;1.40;;;5.00;99.90;;;;;;5016572;28;20589;-77
2022/01/20 13:50:57;;;;;;;10.40;1.80;;;5.00;99.90;;;;;;5016938;28;20259;-77
2022/01/20 13:53:27;;;;;;;14.63;1.77;;;5.10;99.90;;;;;;5017566;28;20176;-77
2022/01/20 13:55:55;;;;;;;8.73;1.60;;;5.10;99.90;;;;;;5018259;28;20670;-77
2022/01/20 13:58:39;;;;;;;8.50;1.30;;;5.10;99.90;;;;;;5018982;28;20202;-78
2022/01/20 14:01:08;;;;;;;11.67;1.80;;;5.10;99.90;;;;;;5017908;28;20702;-77
2022/01/20 14:03:35;;;;;;;10.10;1.93;;;5.00;99.90;;;;;;5017357;28;20546;-77
2022/01/20 14:06:01;;;;;;;14.13;1.90;;;5.00;99.90;;;;;;5017694;28;20252;-78
2022/01/20 14:08:27;;;;;;;7.20;1.70;;;4.90;99.90;;;;;;5017601;28;20835;-77
2022/01/20 14:10:54;;;;;;;10.37;1.70;;;4.80;99.90;;;;;;5016483;28;20632;-77
2022/01/20 14:13:20;;;;;;;8.90;1.70;;;4.70;99.90;;;;;;5016630;28;20178;-77
2022/01/20 14:15:47;;;;;;;13.37;1.67;;;4.80;99.90;;;;;;5018264;28;20206;-77